首页
METAR-TAF:

METAR-TAF

机场 :

比利·畢曉普多倫多市機場

多伦多 City Centre, 安大略省, 加拿大

纬度: 43-38N, 经度: 079-24W, 海拔: 77米

当前天气观测

该预报发布于59分钟前的07:00 UTC
风速14节,风向西转西南
温度 8°C
湿度 87%
气压 997 hPa
能見度: 14.5公里
散云层高于2900英尺
多云层高于3500英尺

METAR: CYTZ 100700Z AUTO 24014KT 9SM SCT029 BKN035 08/06 A2944 RMK SLP972

时间: 02:59 (07:59 UTC)

预报

该预报发布于17分钟前的07:42 UTC
预报有效从10日的 08点(UTC)到 11日的 08点(UTC)
风速15节,风向西转西南,有时为25节阵风
能見度: 10公里
多云层高于3000英尺
短暂存在
从 10日的 08点(UTC)到 10日的 12点(UTC)
阴天层高于2000英尺
从 10日的 1200点(UTC)
风速18节,风向西,有时为28节阵风
能見度: 10公里
多云层高于2500英尺
短暂存在
从 10日的 12点(UTC)到 10日的 15点(UTC)
阴天层高于2000英尺
从 10日的 1800点(UTC)
风速12节,风向西,有时为22节阵风
能見度: 10公里
多云层高于2500英尺
小阵雪
短暂存在
从 10日的 18点(UTC)到 10日的 24点(UTC)
阴天层高于2000英尺
小阵雪
几率 30%
从 10日的 19点(UTC)到 10日的 24点(UTC)
能見度: 1.6公里
层高于1000英尺
小阵雪
从 11日的 0000点(UTC)
风速12节,风向西转西北
能見度: 10公里
多云层高于2500英尺
从 11日的 0400点(UTC)
风速12节,风向西
能見度: 10公里
散云层高于2500英尺

TAF: CYTZ 100742Z 1008/1108 24015G25KT P6SM BKN030 TEMPO 1008/1012 OVC020 FM101200 27018G28KT P6SM BKN025 TEMPO 1012/1015 OVC020 FM101800 28012G22KT P6SM -SHSN BKN025 TEMPO 1018/1024 21/2SM -SHSN OVC020 PROB30 1019/1024 1SM -SHSN VV010 FM110000 29012KT P6SM BKN025 FM110400 27012KT P6SM SCT025 RMK FCST BASED ON AUTO OBS. NXT FCST BY 101400Z

超过4000个机场的气象观测和天气预报(METAR&TAF报告)。

可查询的气象台以黄色和红色小点在地图上表示。

将鼠标移到小点上方,可查看气象台名称。

然后点击查看天气观测和预报。

如需切换地图:点击带黑十字的绿色按钮放大地图;点击带横线的绿色按钮缩小地图;或者点击绿色箭头查看邻近地区的地图。


METAR-TAF: